sensor_id;sensor_type;location;lat;lon;timestamp;P1;durP1;ratioP1;P2;durP2;ratioP2
61003;SDS011;46889;37.310;13.582;2023-02-28T00:00:42;27.75;;;3.28;;
61003;SDS011;46889;37.310;13.582;2023-02-28T00:03:08;20.17;;;2.47;;
61003;SDS011;46889;37.310;13.582;2023-02-28T00:05:36;18.02;;;2.13;;
61003;SDS011;46889;37.310;13.582;2023-02-28T00:08:03;21.58;;;2.30;;
61003;SDS011;46889;37.310;13.582;2023-02-28T00:10:29;18.90;;;2.08;;
61003;SDS011;46889;37.310;13.582;2023-02-28T00:13:02;20.17;;;2.80;;
61003;SDS011;46889;37.310;13.582;2023-02-28T00:15:33;10.00;;;1.77;;
61003;SDS011;46889;37.310;13.582;2023-02-28T00:18:01;20.70;;;2.13;;
61003;SDS011;46889;37.310;13.582;2023-02-28T00:20:29;13.68;;;1.85;;
61003;SDS011;46889;37.310;13.582;2023-02-28T00:22:57;17.35;;;1.92;;
61003;SDS011;46889;37.310;13.582;2023-02-28T00:27:50;12.23;;;1.40;;
61003;SDS011;46889;37.310;13.582;2023-02-28T00:32:47;27.55;;;2.75;;
61003;SDS011;46889;37.310;13.582;2023-02-28T00:35:16;21.10;;;3.20;;
61003;SDS011;46889;37.310;13.582;2023-02-28T00:37:45;13.40;;;1.73;;
61003;SDS011;46889;37.310;13.582;2023-02-28T00:40:14;23.88;;;3.28;;
61003;SDS011;46889;37.310;13.582;2023-02-28T00:42:42;21.70;;;2.47;;
61003;SDS011;46889;37.310;13.582;2023-02-28T00:45:09;36.22;;;3.35;;
61003;SDS011;46889;37.310;13.582;2023-02-28T00:47:47;25.80;;;2.53;;
61003;SDS011;46889;37.310;13.582;2023-02-28T00:52:46;18.83;;;2.70;;
61003;SDS011;46889;37.310;13.582;2023-02-28T00:55:16;23.58;;;2.75;;
61003;SDS011;46889;37.310;13.582;2023-02-28T00:57:43;29.33;;;2.60;;
61003;SDS011;46889;37.310;13.582;2023-02-28T01:00:12;22.42;;;2.92;;
61003;SDS011;46889;37.310;13.582;2023-02-28T01:02:38;15.60;;;2.67;;
61003;SDS011;46889;37.310;13.582;2023-02-28T01:05:05;25.53;;;2.63;;
61003;SDS011;46889;37.310;13.582;2023-02-28T01:07:31;24.50;;;2.67;;
61003;SDS011;46889;37.310;13.582;2023-02-28T01:09:57;21.37;;;3.13;;
61003;SDS011;46889;37.310;13.582;2023-02-28T01:12:23;19.38;;;3.25;;
61003;SDS011;46889;37.310;13.582;2023-02-28T01:14:50;25.80;;;2.65;;
61003;SDS011;46889;37.310;13.582;2023-02-28T01:17:16;29.87;;;3.33;;
61003;SDS011;46889;37.310;13.582;2023-02-28T01:19:42;23.77;;;2.92;;
61003;SDS011;46889;37.310;13.582;2023-02-28T01:22:09;32.53;;;4.40;;
61003;SDS011;46889;37.310;13.582;2023-02-28T01:24:39;32.60;;;3.22;;
61003;SDS011;46889;37.310;13.582;2023-02-28T01:27:05;29.33;;;3.47;;
61003;SDS011;46889;37.310;13.582;2023-02-28T01:29:32;42.55;;;6.60;;
61003;SDS011;46889;37.310;13.582;2023-02-28T01:31:58;20.10;;;2.90;;
61003;SDS011;46889;37.310;13.582;2023-02-28T01:34:30;28.43;;;2.87;;
61003;SDS011;46889;37.310;13.582;2023-02-28T01:36:56;35.92;;;3.40;;
61003;SDS011;46889;37.310;13.582;2023-02-28T01:41:50;34.92;;;2.88;;
61003;SDS011;46889;37.310;13.582;2023-02-28T01:47:19;38.35;;;3.38;;
61003;SDS011;46889;37.310;13.582;2023-02-28T01:49:46;27.38;;;2.47;;
61003;SDS011;46889;37.310;13.582;2023-02-28T01:52:29;32.55;;;2.58;;
61003;SDS011;46889;37.310;13.582;2023-02-28T01:54:56;29.48;;;3.00;;
61003;SDS011;46889;37.310;13.582;2023-02-28T01:57:31;23.05;;;3.08;;
61003;SDS011;46889;37.310;13.582;2023-02-28T02:00:05;23.75;;;3.17;;
61003;SDS011;46889;37.310;13.582;2023-02-28T02:02:34;24.35;;;3.53;;
61003;SDS011;46889;37.310;13.582;2023-02-28T02:05:08;22.73;;;3.97;;
61003;SDS011;46889;37.310;13.582;2023-02-28T02:07:37;22.58;;;3.08;;
61003;SDS011;46889;37.310;13.582;2023-02-28T02:15:40;33.60;;;4.30;;
61003;SDS011;46889;37.310;13.582;2023-02-28T02:27:17;28.88;;;3.83;;
61003;SDS011;46889;37.310;13.582;2023-02-28T02:30:20;31.00;;;4.22;;
61003;SDS011;46889;37.310;13.582;2023-02-28T02:39:02;48.83;;;5.63;;
61003;SDS011;46889;37.310;13.582;2023-02-28T02:41:53;55.92;;;5.70;;
61003;SDS011;46889;37.310;13.582;2023-02-28T02:44:27;53.65;;;4.95;;
61003;SDS011;46889;37.310;13.582;2023-02-28T02:47:19;52.75;;;6.93;;
61003;SDS011;46889;37.310;13.582;2023-02-28T02:49:54;44.95;;;4.97;;
61003;SDS011;46889;37.310;13.582;2023-02-28T02:52:25;42.00;;;4.55;;
61003;SDS011;46889;37.310;13.582;2023-02-28T02:54:57;54.20;;;5.25;;
61003;SDS011;46889;37.310;13.582;2023-02-28T02:57:30;31.42;;;5.18;;
61003;SDS011;46889;37.310;13.582;2023-02-28T03:00:02;39.15;;;4.85;;
61003;SDS011;46889;37.310;13.582;2023-02-28T03:02:33;63.90;;;7.18;;
61003;SDS011;46889;37.310;13.582;2023-02-28T03:05:04;36.45;;;4.95;;
61003;SDS011;46889;37.310;13.582;2023-02-28T03:07:37;60.95;;;6.75;;
61003;SDS011;46889;37.310;13.582;2023-02-28T03:10:26;63.53;;;6.57;;
61003;SDS011;46889;37.310;13.582;2023-02-28T03:13:00;63.08;;;6.78;;
61003;SDS011;46889;37.310;13.582;2023-02-28T03:15:43;63.50;;;7.07;;
61003;SDS011;46889;37.310;13.582;2023-02-28T03:18:29;78.10;;;9.45;;
61003;SDS011;46889;37.310;13.582;2023-02-28T03:26:43;87.20;;;6.45;;
61003;SDS011;46889;37.310;13.582;2023-02-28T03:29:18;47.05;;;5.75;;
61003;SDS011;46889;37.310;13.582;2023-02-28T03:35:08;85.07;;;9.73;;
61003;SDS011;46889;37.310;13.582;2023-02-28T03:37:48;110.65;;;10.10;;
61003;SDS011;46889;37.310;13.582;2023-02-28T03:40:27;87.35;;;9.30;;
61003;SDS011;46889;37.310;13.582;2023-02-28T03:42:59;103.05;;;10.77;;
61003;SDS011;46889;37.310;13.582;2023-02-28T03:45:33;113.70;;;10.50;;
61003;SDS011;46889;37.310;13.582;2023-02-28T03:48:05;99.53;;;11.13;;
61003;SDS011;46889;37.310;13.582;2023-02-28T03:50:41;103.63;;;11.35;;
61003;SDS011;46889;37.310;13.582;2023-02-28T03:55:40;112.15;;;10.90;;
61003;SDS011;46889;37.310;13.582;2023-02-28T04:04:16;105.05;;;11.13;;
61003;SDS011;46889;37.310;13.582;2023-02-28T04:06:44;124.28;;;11.15;;
61003;SDS011;46889;37.310;13.582;2023-02-28T04:09:14;106.72;;;10.45;;
61003;SDS011;46889;37.310;13.582;2023-02-28T04:14:17;93.63;;;10.35;;
61003;SDS011;46889;37.310;13.582;2023-02-28T04:16:46;92.88;;;11.48;;
61003;SDS011;46889;37.310;13.582;2023-02-28T04:19:16;93.35;;;9.30;;
61003;SDS011;46889;37.310;13.582;2023-02-28T04:21:48;84.18;;;9.50;;
61003;SDS011;46889;37.310;13.582;2023-02-28T04:24:20;81.25;;;11.32;;
61003;SDS011;46889;37.310;13.582;2023-02-28T04:26:52;79.30;;;7.55;;
61003;SDS011;46889;37.310;13.582;2023-02-28T04:29:22;92.00;;;10.57;;
61003;SDS011;46889;37.310;13.582;2023-02-28T04:31:51;84.15;;;9.63;;
61003;SDS011;46889;37.310;13.582;2023-02-28T04:34:24;94.60;;;8.98;;
61003;SDS011;46889;37.310;13.582;2023-02-28T04:36:53;81.57;;;9.20;;
61003;SDS011;46889;37.310;13.582;2023-02-28T04:39:20;84.57;;;8.63;;
61003;SDS011;46889;37.310;13.582;2023-02-28T04:41:51;77.10;;;8.95;;
61003;SDS011;46889;37.310;13.582;2023-02-28T04:44:17;96.90;;;8.60;;
61003;SDS011;46889;37.310;13.582;2023-02-28T04:46:48;78.85;;;8.98;;
61003;SDS011;46889;37.310;13.582;2023-02-28T04:49:15;92.18;;;9.18;;
61003;SDS011;46889;37.310;13.582;2023-02-28T04:51:41;95.97;;;8.68;;
61003;SDS011;46889;37.310;13.582;2023-02-28T04:54:08;75.37;;;8.70;;
61003;SDS011;46889;37.310;13.582;2023-02-28T04:56:34;83.65;;;9.27;;
61003;SDS011;46889;37.310;13.582;2023-02-28T04:59:01;88.18;;;9.50;;
61003;SDS011;46889;37.310;13.582;2023-02-28T05:01:28;88.13;;;8.67;;
61003;SDS011;46889;37.310;13.582;2023-02-28T05:03:58;85.55;;;8.52;;
61003;SDS011;46889;37.310;13.582;2023-02-28T05:06:27;82.35;;;8.68;;
61003;SDS011;46889;37.310;13.582;2023-02-28T05:08:55;71.50;;;8.90;;
61003;SDS011;46889;37.310;13.582;2023-02-28T05:11:26;94.70;;;9.20;;
61003;SDS011;46889;37.310;13.582;2023-02-28T05:16:24;63.20;;;7.45;;
61003;SDS011;46889;37.310;13.582;2023-02-28T05:18:50;87.80;;;10.63;;
61003;SDS011;46889;37.310;13.582;2023-02-28T05:21:35;71.43;;;8.95;;
61003;SDS011;46889;37.310;13.582;2023-02-28T05:24:10;69.28;;;8.50;;
61003;SDS011;46889;37.310;13.582;2023-02-28T05:26:40;70.32;;;8.55;;
61003;SDS011;46889;37.310;13.582;2023-02-28T05:29:07;79.35;;;8.15;;
61003;SDS011;46889;37.310;13.582;2023-02-28T05:31:45;69.65;;;7.85;;
61003;SDS011;46889;37.310;13.582;2023-02-28T05:34:11;71.47;;;8.38;;
61003;SDS011;46889;37.310;13.582;2023-02-28T05:36:47;67.93;;;7.95;;
61003;SDS011;46889;37.310;13.582;2023-02-28T05:39:13;74.70;;;8.43;;
61003;SDS011;46889;37.310;13.582;2023-02-28T05:41:40;64.60;;;8.13;;
61003;SDS011;46889;37.310;13.582;2023-02-28T05:44:07;63.83;;;7.60;;
61003;SDS011;46889;37.310;13.582;2023-02-28T05:46:33;71.78;;;7.57;;
61003;SDS011;46889;37.310;13.582;2023-02-28T05:48:59;80.10;;;7.45;;
61003;SDS011;46889;37.310;13.582;2023-02-28T05:51:26;50.70;;;6.45;;
61003;SDS011;46889;37.310;13.582;2023-02-28T05:53:57;78.82;;;8.02;;
61003;SDS011;46889;37.310;13.582;2023-02-28T05:56:33;88.20;;;7.25;;
61003;SDS011;46889;37.310;13.582;2023-02-28T05:59:04;50.17;;;5.57;;
61003;SDS011;46889;37.310;13.582;2023-02-28T06:01:31;58.22;;;5.88;;
61003;SDS011;46889;37.310;13.582;2023-02-28T06:04:03;64.15;;;7.63;;
61003;SDS011;46889;37.310;13.582;2023-02-28T06:06:31;58.65;;;6.82;;
61003;SDS011;46889;37.310;13.582;2023-02-28T06:08:59;61.50;;;7.05;;
61003;SDS011;46889;37.310;13.582;2023-02-28T06:11:26;62.30;;;8.40;;
61003;SDS011;46889;37.310;13.582;2023-02-28T06:13:53;61.90;;;7.30;;
61003;SDS011;46889;37.310;13.582;2023-02-28T06:16:28;63.90;;;9.15;;
61003;SDS011;46889;37.310;13.582;2023-02-28T06:18:57;61.05;;;6.65;;
61003;SDS011;46889;37.310;13.582;2023-02-28T06:21:24;68.53;;;7.80;;
61003;SDS011;46889;37.310;13.582;2023-02-28T06:23:53;69.25;;;6.72;;
61003;SDS011;46889;37.310;13.582;2023-02-28T06:26:20;53.17;;;6.78;;
61003;SDS011;46889;37.310;13.582;2023-02-28T06:28:51;72.85;;;7.25;;
61003;SDS011;46889;37.310;13.582;2023-02-28T06:31:18;71.65;;;7.10;;
61003;SDS011;46889;37.310;13.582;2023-02-28T06:33:45;67.95;;;7.20;;
61003;SDS011;46889;37.310;13.582;2023-02-28T06:36:12;62.30;;;6.68;;
61003;SDS011;46889;37.310;13.582;2023-02-28T06:38:40;71.32;;;7.45;;
61003;SDS011;46889;37.310;13.582;2023-02-28T06:41:07;74.32;;;7.30;;
61003;SDS011;46889;37.310;13.582;2023-02-28T06:43:39;63.30;;;7.18;;
61003;SDS011;46889;37.310;13.582;2023-02-28T06:46:07;66.30;;;5.50;;
61003;SDS011;46889;37.310;13.582;2023-02-28T06:48:36;59.25;;;5.35;;
61003;SDS011;46889;37.310;13.582;2023-02-28T06:51:07;61.25;;;7.22;;
61003;SDS011;46889;37.310;13.582;2023-02-28T06:53:38;63.60;;;7.25;;
61003;SDS011;46889;37.310;13.582;2023-02-28T06:56:07;68.57;;;7.05;;
61003;SDS011;46889;37.310;13.582;2023-02-28T06:58:37;58.38;;;6.68;;
61003;SDS011;46889;37.310;13.582;2023-02-28T07:01:04;65.30;;;6.88;;
61003;SDS011;46889;37.310;13.582;2023-02-28T07:03:31;65.47;;;7.15;;
61003;SDS011;46889;37.310;13.582;2023-02-28T07:05:59;52.15;;;7.10;;
61003;SDS011;46889;37.310;13.582;2023-02-28T07:08:26;77.13;;;6.50;;
61003;SDS011;46889;37.310;13.582;2023-02-28T07:10:53;70.32;;;6.95;;
61003;SDS011;46889;37.310;13.582;2023-02-28T07:13:19;54.25;;;6.97;;
61003;SDS011;46889;37.310;13.582;2023-02-28T07:18:28;63.92;;;6.03;;
61003;SDS011;46889;37.310;13.582;2023-02-28T07:20:55;55.55;;;6.00;;
61003;SDS011;46889;37.310;13.582;2023-02-28T07:23:21;61.92;;;8.55;;
61003;SDS011;46889;37.310;13.582;2023-02-28T07:30:47;62.15;;;7.10;;
61003;SDS011;46889;37.310;13.582;2023-02-28T07:33:13;61.65;;;6.53;;
61003;SDS011;46889;37.310;13.582;2023-02-28T07:35:39;59.13;;;6.93;;
61003;SDS011;46889;37.310;13.582;2023-02-28T07:38:06;59.53;;;6.70;;
61003;SDS011;46889;37.310;13.582;2023-02-28T07:40:33;61.60;;;8.15;;
61003;SDS011;46889;37.310;13.582;2023-02-28T07:43:00;60.97;;;6.30;;
61003;SDS011;46889;37.310;13.582;2023-02-28T07:45:29;58.47;;;7.63;;
61003;SDS011;46889;37.310;13.582;2023-02-28T07:47:57;59.42;;;8.23;;
61003;SDS011;46889;37.310;13.582;2023-02-28T07:52:50;57.38;;;6.88;;
61003;SDS011;46889;37.310;13.582;2023-02-28T07:55:16;62.70;;;7.05;;
61003;SDS011;46889;37.310;13.582;2023-02-28T07:57:44;75.85;;;8.40;;
61003;SDS011;46889;37.310;13.582;2023-02-28T08:00:13;55.13;;;7.13;;
61003;SDS011;46889;37.310;13.582;2023-02-28T08:02:42;64.95;;;7.82;;
61003;SDS011;46889;37.310;13.582;2023-02-28T08:05:09;64.90;;;7.95;;
61003;SDS011;46889;37.310;13.582;2023-02-28T08:07:38;54.30;;;5.53;;
61003;SDS011;46889;37.310;13.582;2023-02-28T08:10:05;57.45;;;6.38;;
61003;SDS011;46889;37.310;13.582;2023-02-28T08:12:31;54.10;;;6.15;;
61003;SDS011;46889;37.310;13.582;2023-02-28T08:14:58;53.35;;;6.72;;
61003;SDS011;46889;37.310;13.582;2023-02-28T08:17:24;61.67;;;6.63;;
61003;SDS011;46889;37.310;13.582;2023-02-28T08:19:51;64.68;;;7.32;;
61003;SDS011;46889;37.310;13.582;2023-02-28T08:22:18;54.28;;;6.63;;
61003;SDS011;46889;37.310;13.582;2023-02-28T08:24:44;69.00;;;8.33;;
61003;SDS011;46889;37.310;13.582;2023-02-28T08:27:11;59.15;;;6.43;;
61003;SDS011;46889;37.310;13.582;2023-02-28T08:29:39;60.15;;;6.55;;
61003;SDS011;46889;37.310;13.582;2023-02-28T08:32:09;63.47;;;6.25;;
61003;SDS011;46889;37.310;13.582;2023-02-28T08:34:35;61.47;;;6.43;;
61003;SDS011;46889;37.310;13.582;2023-02-28T08:37:04;71.70;;;6.45;;
61003;SDS011;46889;37.310;13.582;2023-02-28T08:41:59;62.85;;;6.57;;
61003;SDS011;46889;37.310;13.582;2023-02-28T08:44:25;70.63;;;6.93;;
61003;SDS011;46889;37.310;13.582;2023-02-28T08:46:52;57.28;;;5.95;;
61003;SDS011;46889;37.310;13.582;2023-02-28T08:49:18;65.13;;;7.87;;
61003;SDS011;46889;37.310;13.582;2023-02-28T08:51:45;62.40;;;7.47;;
61003;SDS011;46889;37.310;13.582;2023-02-28T08:54:11;64.97;;;7.45;;
61003;SDS011;46889;37.310;13.582;2023-02-28T08:56:38;68.63;;;6.95;;
61003;SDS011;46889;37.310;13.582;2023-02-28T08:59:04;57.83;;;7.15;;
61003;SDS011;46889;37.310;13.582;2023-02-28T09:03:57;62.50;;;6.75;;
61003;SDS011;46889;37.310;13.582;2023-02-28T09:06:25;69.30;;;7.38;;
61003;SDS011;46889;37.310;13.582;2023-02-28T09:08:58;67.20;;;9.40;;
61003;SDS011;46889;37.310;13.582;2023-02-28T09:11:27;74.05;;;9.48;;
61003;SDS011;46889;37.310;13.582;2023-02-28T09:13:54;63.35;;;9.95;;
61003;SDS011;46889;37.310;13.582;2023-02-28T09:16:20;78.80;;;9.68;;
61003;SDS011;46889;37.310;13.582;2023-02-28T09:18:47;61.15;;;9.38;;
61003;SDS011;46889;37.310;13.582;2023-02-28T09:21:14;64.57;;;7.63;;
61003;SDS011;46889;37.310;13.582;2023-02-28T09:23:45;65.93;;;8.05;;
61003;SDS011;46889;37.310;13.582;2023-02-28T09:26:15;58.58;;;8.65;;
61003;SDS011;46889;37.310;13.582;2023-02-28T09:28:43;79.57;;;8.50;;
61003;SDS011;46889;37.310;13.582;2023-02-28T09:31:19;64.20;;;6.93;;
61003;SDS011;46889;37.310;13.582;2023-02-28T09:33:49;70.28;;;7.82;;
61003;SDS011;46889;37.310;13.582;2023-02-28T09:36:16;51.78;;;6.93;;
61003;SDS011;46889;37.310;13.582;2023-02-28T09:38:46;68.93;;;7.47;;
61003;SDS011;46889;37.310;13.582;2023-02-28T09:41:15;67.28;;;7.47;;
61003;SDS011;46889;37.310;13.582;2023-02-28T09:43:55;56.20;;;6.22;;
61003;SDS011;46889;37.310;13.582;2023-02-28T09:49:00;57.80;;;6.68;;
61003;SDS011;46889;37.310;13.582;2023-02-28T09:54:23;59.40;;;7.78;;
61003;SDS011;46889;37.310;13.582;2023-02-28T09:56:53;53.22;;;6.07;;
61003;SDS011;46889;37.310;13.582;2023-02-28T09:59:36;59.42;;;6.90;;
61003;SDS011;46889;37.310;13.582;2023-02-28T10:02:30;48.92;;;6.28;;
61003;SDS011;46889;37.310;13.582;2023-02-28T10:05:08;67.25;;;8.30;;
61003;SDS011;46889;37.310;13.582;2023-02-28T10:10:23;49.38;;;6.03;;
61003;SDS011;46889;37.310;13.582;2023-02-28T10:13:02;50.17;;;6.28;;
61003;SDS011;46889;37.310;13.582;2023-02-28T10:15:32;61.35;;;7.03;;
61003;SDS011;46889;37.310;13.582;2023-02-28T10:18:02;58.42;;;6.20;;
61003;SDS011;46889;37.310;13.582;2023-02-28T10:20:39;60.92;;;7.05;;
61003;SDS011;46889;37.310;13.582;2023-02-28T10:26:43;74.38;;;7.40;;
61003;SDS011;46889;37.310;13.582;2023-02-28T10:29:40;64.35;;;7.28;;
61003;SDS011;46889;37.310;13.582;2023-02-28T10:32:09;51.53;;;5.55;;
61003;SDS011;46889;37.310;13.582;2023-02-28T10:34:40;54.33;;;7.32;;
61003;SDS011;46889;37.310;13.582;2023-02-28T10:37:08;49.38;;;6.20;;
61003;SDS011;46889;37.310;13.582;2023-02-28T10:39:52;60.50;;;7.57;;
61003;SDS011;46889;37.310;13.582;2023-02-28T10:42:20;59.65;;;6.90;;
61003;SDS011;46889;37.310;13.582;2023-02-28T10:47:53;59.33;;;6.07;;
61003;SDS011;46889;37.310;13.582;2023-02-28T10:56:14;50.58;;;6.18;;
61003;SDS011;46889;37.310;13.582;2023-02-28T11:01:24;49.58;;;6.22;;
61003;SDS011;46889;37.310;13.582;2023-02-28T11:07:20;61.40;;;7.47;;
61003;SDS011;46889;37.310;13.582;2023-02-28T11:09:48;65.03;;;6.97;;
61003;SDS011;46889;37.310;13.582;2023-02-28T11:12:27;64.20;;;6.93;;
61003;SDS011;46889;37.310;13.582;2023-02-28T11:15:17;50.65;;;6.03;;
61003;SDS011;46889;37.310;13.582;2023-02-28T11:18:05;63.78;;;6.78;;
61003;SDS011;46889;37.310;13.582;2023-02-28T11:21:02;71.05;;;6.03;;
61003;SDS011;46889;37.310;13.582;2023-02-28T11:23:30;64.32;;;6.50;;
61003;SDS011;46889;37.310;13.582;2023-02-28T11:26:02;59.33;;;6.90;;
61003;SDS011;46889;37.310;13.582;2023-02-28T11:31:06;58.63;;;6.72;;
61003;SDS011;46889;37.310;13.582;2023-02-28T11:33:45;64.20;;;7.22;;
61003;SDS011;46889;37.310;13.582;2023-02-28T11:39:01;76.03;;;8.68;;
61003;SDS011;46889;37.310;13.582;2023-02-28T11:41:49;63.65;;;6.82;;
61003;SDS011;46889;37.310;13.582;2023-02-28T11:47:32;54.42;;;7.65;;
61003;SDS011;46889;37.310;13.582;2023-02-28T11:50:20;68.32;;;7.03;;
61003;SDS011;46889;37.310;13.582;2023-02-28T11:53:01;52.72;;;5.88;;
61003;SDS011;46889;37.310;13.582;2023-02-28T11:55:46;56.35;;;6.78;;
61003;SDS011;46889;37.310;13.582;2023-02-28T12:02:05;51.20;;;6.38;;
61003;SDS011;46889;37.310;13.582;2023-02-28T12:07:28;47.15;;;5.72;;
61003;SDS011;46889;37.310;13.582;2023-02-28T12:10:24;49.90;;;5.32;;
61003;SDS011;46889;37.310;13.582;2023-02-28T12:21:35;71.90;;;8.40;;
61003;SDS011;46889;37.310;13.582;2023-02-28T12:24:39;71.90;;;9.05;;
61003;SDS011;46889;37.310;13.582;2023-02-28T12:27:11;76.65;;;8.30;;
61003;SDS011;46889;37.310;13.582;2023-02-28T12:29:45;80.88;;;9.30;;
61003;SDS011;46889;37.310;13.582;2023-02-28T12:32:32;75.38;;;8.77;;
61003;SDS011;46889;37.310;13.582;2023-02-28T12:35:19;63.45;;;7.88;;
61003;SDS011;46889;37.310;13.582;2023-02-28T12:38:02;82.60;;;8.52;;
61003;SDS011;46889;37.310;13.582;2023-02-28T12:40:47;83.93;;;7.88;;
61003;SDS011;46889;37.310;13.582;2023-02-28T12:48:39;85.80;;;9.65;;
61003;SDS011;46889;37.310;13.582;2023-02-28T12:51:15;78.72;;;8.60;;
61003;SDS011;46889;37.310;13.582;2023-02-28T13:02:42;92.60;;;9.18;;
61003;SDS011;46889;37.310;13.582;2023-02-28T13:05:07;95.38;;;10.25;;
61003;SDS011;46889;37.310;13.582;2023-02-28T13:10:37;85.00;;;10.80;;
61003;SDS011;46889;37.310;13.582;2023-02-28T13:13:13;93.55;;;9.95;;
61003;SDS011;46889;37.310;13.582;2023-02-28T13:15:51;88.22;;;9.30;;
61003;SDS011;46889;37.310;13.582;2023-02-28T13:18:43;88.47;;;11.02;;
61003;SDS011;46889;37.310;13.582;2023-02-28T13:21:45;90.82;;;8.80;;
61003;SDS011;46889;37.310;13.582;2023-02-28T13:24:08;93.10;;;9.48;;
61003;SDS011;46889;37.310;13.582;2023-02-28T13:39:54;90.07;;;10.20;;
61003;SDS011;46889;37.310;13.582;2023-02-28T13:42:34;92.22;;;9.65;;
61003;SDS011;46889;37.310;13.582;2023-02-28T14:06:34;102.47;;;9.63;;
61003;SDS011;46889;37.310;13.582;2023-02-28T14:11:51;82.82;;;10.02;;
61003;SDS011;46889;37.310;13.582;2023-02-28T14:17:12;93.95;;;9.35;;
61003;SDS011;46889;37.310;13.582;2023-02-28T14:19:47;75.18;;;9.90;;
61003;SDS011;46889;37.310;13.582;2023-02-28T14:25:16;90.53;;;10.27;;
61003;SDS011;46889;37.310;13.582;2023-02-28T14:33:48;80.97;;;8.93;;
61003;SDS011;46889;37.310;13.582;2023-02-28T14:36:41;87.18;;;9.52;;
61003;SDS011;46889;37.310;13.582;2023-02-28T14:39:15;80.88;;;9.35;;
61003;SDS011;46889;37.310;13.582;2023-02-28T14:41:44;89.05;;;11.43;;
61003;SDS011;46889;37.310;13.582;2023-02-28T14:47:01;75.75;;;10.68;;
61003;SDS011;46889;37.310;13.582;2023-02-28T14:49:37;73.47;;;8.32;;
61003;SDS011;46889;37.310;13.582;2023-02-28T14:54:51;84.85;;;9.85;;
61003;SDS011;46889;37.310;13.582;2023-02-28T14:57:30;86.85;;;10.90;;
61003;SDS011;46889;37.310;13.582;2023-02-28T15:00:00;88.20;;;10.57;;
61003;SDS011;46889;37.310;13.582;2023-02-28T15:02:30;95.55;;;10.80;;
61003;SDS011;46889;37.310;13.582;2023-02-28T15:05:00;69.85;;;9.52;;
61003;SDS011;46889;37.310;13.582;2023-02-28T15:07:44;74.60;;;8.27;;
61003;SDS011;46889;37.310;13.582;2023-02-28T15:10:17;63.25;;;7.68;;
61003;SDS011;46889;37.310;13.582;2023-02-28T15:12:54;54.35;;;6.40;;
61003;SDS011;46889;37.310;13.582;2023-02-28T15:15:34;41.70;;;5.03;;
61003;SDS011;46889;37.310;13.582;2023-02-28T15:18:02;43.33;;;5.32;;
61003;SDS011;46889;37.310;13.582;2023-02-28T15:20:32;63.10;;;6.45;;
61003;SDS011;46889;37.310;13.582;2023-02-28T15:23:10;61.95;;;7.40;;
61003;SDS011;46889;37.310;13.582;2023-02-28T15:25:37;76.60;;;7.78;;
61003;SDS011;46889;37.310;13.582;2023-02-28T15:28:04;79.45;;;8.13;;
61003;SDS011;46889;37.310;13.582;2023-02-28T15:33:32;78.07;;;8.90;;
61003;SDS011;46889;37.310;13.582;2023-02-28T15:36:12;95.60;;;9.50;;
61003;SDS011;46889;37.310;13.582;2023-02-28T15:38:40;82.50;;;8.30;;
61003;SDS011;46889;37.310;13.582;2023-02-28T15:41:21;100.03;;;9.55;;
61003;SDS011;46889;37.310;13.582;2023-02-28T15:44:13;90.60;;;10.18;;
61003;SDS011;46889;37.310;13.582;2023-02-28T15:46:41;72.93;;;7.90;;
61003;SDS011;46889;37.310;13.582;2023-02-28T15:49:13;92.75;;;9.38;;
61003;SDS011;46889;37.310;13.582;2023-02-28T15:51:45;75.18;;;9.13;;
61003;SDS011;46889;37.310;13.582;2023-02-28T15:54:15;89.78;;;10.50;;
61003;SDS011;46889;37.310;13.582;2023-02-28T15:56:46;74.75;;;7.95;;
61003;SDS011;46889;37.310;13.582;2023-02-28T15:59:16;79.05;;;8.57;;
61003;SDS011;46889;37.310;13.582;2023-02-28T16:01:45;86.40;;;8.93;;
61003;SDS011;46889;37.310;13.582;2023-02-28T16:06:44;71.45;;;9.45;;
61003;SDS011;46889;37.310;13.582;2023-02-28T16:09:12;72.13;;;9.70;;
61003;SDS011;46889;37.310;13.582;2023-02-28T16:11:42;84.82;;;8.82;;
61003;SDS011;46889;37.310;13.582;2023-02-28T16:14:12;76.15;;;9.48;;
61003;SDS011;46889;37.310;13.582;2023-02-28T16:16:42;71.65;;;7.53;;
61003;SDS011;46889;37.310;13.582;2023-02-28T16:19:11;77.70;;;7.82;;
61003;SDS011;46889;37.310;13.582;2023-02-28T16:21:38;66.28;;;7.97;;
61003;SDS011;46889;37.310;13.582;2023-02-28T16:26:34;68.78;;;8.15;;
61003;SDS011;46889;37.310;13.582;2023-02-28T16:29:02;78.32;;;8.05;;
61003;SDS011;46889;37.310;13.582;2023-02-28T16:33:57;85.88;;;9.23;;
61003;SDS011;46889;37.310;13.582;2023-02-28T16:36:23;63.10;;;7.87;;
61003;SDS011;46889;37.310;13.582;2023-02-28T16:38:50;75.22;;;8.50;;
61003;SDS011;46889;37.310;13.582;2023-02-28T16:41:21;73.95;;;8.77;;
61003;SDS011;46889;37.310;13.582;2023-02-28T16:43:51;87.13;;;8.80;;
61003;SDS011;46889;37.310;13.582;2023-02-28T16:46:19;85.93;;;8.43;;
61003;SDS011;46889;37.310;13.582;2023-02-28T16:48:47;76.45;;;9.13;;
61003;SDS011;46889;37.310;13.582;2023-02-28T16:51:16;91.38;;;11.07;;
61003;SDS011;46889;37.310;13.582;2023-02-28T16:58:54;74.97;;;8.15;;
61003;SDS011;46889;37.310;13.582;2023-02-28T17:01:26;76.47;;;8.32;;
61003;SDS011;46889;37.310;13.582;2023-02-28T17:03:56;82.57;;;9.25;;
61003;SDS011;46889;37.310;13.582;2023-02-28T17:06:24;78.20;;;8.60;;
61003;SDS011;46889;37.310;13.582;2023-02-28T17:08:54;79.45;;;8.82;;
61003;SDS011;46889;37.310;13.582;2023-02-28T17:11:27;78.15;;;8.85;;
61003;SDS011;46889;37.310;13.582;2023-02-28T17:13:53;99.03;;;9.18;;
61003;SDS011;46889;37.310;13.582;2023-02-28T17:16:25;92.90;;;12.50;;
61003;SDS011;46889;37.310;13.582;2023-02-28T17:18:54;75.70;;;9.73;;
61003;SDS011;46889;37.310;13.582;2023-02-28T17:21:23;71.97;;;8.27;;
61003;SDS011;46889;37.310;13.582;2023-02-28T17:23:49;90.47;;;9.87;;
61003;SDS011;46889;37.310;13.582;2023-02-28T17:26:16;78.60;;;9.17;;
61003;SDS011;46889;37.310;13.582;2023-02-28T17:28:45;79.82;;;9.27;;
61003;SDS011;46889;37.310;13.582;2023-02-28T17:31:17;77.28;;;11.43;;
61003;SDS011;46889;37.310;13.582;2023-02-28T17:33:43;102.82;;;11.05;;
61003;SDS011;46889;37.310;13.582;2023-02-28T17:36:15;83.97;;;10.40;;
61003;SDS011;46889;37.310;13.582;2023-02-28T17:38:43;84.20;;;9.77;;
61003;SDS011;46889;37.310;13.582;2023-02-28T17:43:36;74.75;;;8.40;;
61003;SDS011;46889;37.310;13.582;2023-02-28T17:46:02;99.47;;;10.20;;
61003;SDS011;46889;37.310;13.582;2023-02-28T17:48:30;84.57;;;9.88;;
61003;SDS011;46889;37.310;13.582;2023-02-28T17:51:01;85.28;;;11.15;;
61003;SDS011;46889;37.310;13.582;2023-02-28T17:53:28;83.47;;;10.80;;
61003;SDS011;46889;37.310;13.582;2023-02-28T17:55:54;95.13;;;10.67;;
61003;SDS011;46889;37.310;13.582;2023-02-28T17:58:21;77.57;;;8.93;;
61003;SDS011;46889;37.310;13.582;2023-02-28T18:00:47;64.97;;;7.20;;
61003;SDS011;46889;37.310;13.582;2023-02-28T18:03:18;52.67;;;7.20;;
61003;SDS011;46889;37.310;13.582;2023-02-28T18:08:13;26.52;;;3.58;;
61003;SDS011;46889;37.310;13.582;2023-02-28T18:10:40;21.27;;;3.38;;
61003;SDS011;46889;37.310;13.582;2023-02-28T18:13:09;20.60;;;2.93;;
61003;SDS011;46889;37.310;13.582;2023-02-28T18:15:39;16.45;;;2.55;;
61003;SDS011;46889;37.310;13.582;2023-02-28T18:18:05;24.98;;;2.70;;